LTBU/TEQ METAR and TAF weather

Enter ICAO airport designator
Station Type Date Time Source
LTBU METAR 2022/01/19 19:20 UTC NOAA

LTBU 191920Z VRB02KT CAVOK M04/M07 Q1029


Station Type Date Time Source
LTBU Decoded METAR 2022/01/19 19:20 UTC NOAA

Corlu, Turkey (LTBU) 41-08N 027-55E
Jan 19, 2022 - 02:20 PM EST / 2022.01.19 1920 UTC
Wind: Variable at 2 MPH (2 KT):0
Visibility: greater than 7 mile(s):0
Temperature: 24 F (-4 C)
Dew Point: 19 F (-7 C)
Relative Humidity: 79%
Pressure (altimeter): 30.39 in. Hg (1029 hPa)
ob: LTBU 191920Z VRB02KT CAVOK M04/M07 Q1029
cycle: 19

Station Type Date Time Source
LTBU TAF 2022/01/19 18:03 UTC NOAA

TAF LTBU 191640Z 1918/2018 26006KT CAVOK
BECMG 1922/2001 SCT035
BECMG 2003/2006 20013KT BKN025
BECMG 2011/2014 SCT035

Example: see airport list